sensor_id;sensor_type;location;lat;lon;timestamp;P1;durP1;ratioP1;P2;durP2;ratioP2
26113;SDS011;13966;48.828;9.064;2022-12-05T00:00:51;23.75;;;14.25;;
26113;SDS011;13966;48.828;9.064;2022-12-05T00:03:17;25.58;;;13.98;;
26113;SDS011;13966;48.828;9.064;2022-12-05T00:05:43;25.92;;;13.20;;
26113;SDS011;13966;48.828;9.064;2022-12-05T00:08:09;26.92;;;14.48;;
26113;SDS011;13966;48.828;9.064;2022-12-05T00:10:36;29.85;;;15.70;;
26113;SDS011;13966;48.828;9.064;2022-12-05T00:13:02;30.45;;;15.30;;
26113;SDS011;13966;48.828;9.064;2022-12-05T00:15:28;28.70;;;14.35;;
26113;SDS011;13966;48.828;9.064;2022-12-05T00:17:54;28.17;;;14.57;;
26113;SDS011;13966;48.828;9.064;2022-12-05T00:20:20;26.67;;;13.57;;
26113;SDS011;13966;48.828;9.064;2022-12-05T00:22:46;30.35;;;16.10;;
26113;SDS011;13966;48.828;9.064;2022-12-05T00:25:12;31.20;;;15.25;;
26113;SDS011;13966;48.828;9.064;2022-12-05T00:27:38;25.38;;;13.55;;
26113;SDS011;13966;48.828;9.064;2022-12-05T00:30:05;28.20;;;14.23;;
26113;SDS011;13966;48.828;9.064;2022-12-05T00:32:31;26.33;;;15.10;;
26113;SDS011;13966;48.828;9.064;2022-12-05T00:34:57;26.85;;;13.38;;
26113;SDS011;13966;48.828;9.064;2022-12-05T00:37:23;29.13;;;14.27;;
26113;SDS011;13966;48.828;9.064;2022-12-05T00:39:49;26.23;;;13.98;;
26113;SDS011;13966;48.828;9.064;2022-12-05T00:42:15;27.05;;;13.95;;
26113;SDS011;13966;48.828;9.064;2022-12-05T00:44:41;28.40;;;14.40;;
26113;SDS011;13966;48.828;9.064;2022-12-05T00:47:07;27.15;;;13.52;;
26113;SDS011;13966;48.828;9.064;2022-12-05T00:49:33;27.30;;;13.68;;
26113;SDS011;13966;48.828;9.064;2022-12-05T00:51:59;28.80;;;13.77;;
26113;SDS011;13966;48.828;9.064;2022-12-05T00:54:25;26.48;;;14.45;;
26113;SDS011;13966;48.828;9.064;2022-12-05T00:56:51;28.85;;;14.80;;
26113;SDS011;13966;48.828;9.064;2022-12-05T00:59:20;27.38;;;14.60;;
26113;SDS011;13966;48.828;9.064;2022-12-05T01:01:47;27.90;;;15.15;;
26113;SDS011;13966;48.828;9.064;2022-12-05T01:04:20;28.23;;;15.05;;
26113;SDS011;13966;48.828;9.064;2022-12-05T01:06:47;25.55;;;14.00;;
26113;SDS011;13966;48.828;9.064;2022-12-05T01:09:14;26.80;;;14.13;;
26113;SDS011;13966;48.828;9.064;2022-12-05T01:11:41;28.75;;;14.02;;
26113;SDS011;13966;48.828;9.064;2022-12-05T01:14:08;26.02;;;14.02;;
26113;SDS011;13966;48.828;9.064;2022-12-05T01:16:34;22.77;;;12.60;;
26113;SDS011;13966;48.828;9.064;2022-12-05T01:19:02;26.63;;;13.95;;
26113;SDS011;13966;48.828;9.064;2022-12-05T01:21:28;24.70;;;13.85;;
26113;SDS011;13966;48.828;9.064;2022-12-05T01:23:57;24.52;;;13.32;;
26113;SDS011;13966;48.828;9.064;2022-12-05T01:26:23;27.48;;;14.02;;
26113;SDS011;13966;48.828;9.064;2022-12-05T01:28:49;29.67;;;14.88;;
26113;SDS011;13966;48.828;9.064;2022-12-05T01:31:26;26.25;;;13.38;;
26113;SDS011;13966;48.828;9.064;2022-12-05T01:33:53;27.23;;;14.48;;
26113;SDS011;13966;48.828;9.064;2022-12-05T01:36:20;29.42;;;14.60;;
26113;SDS011;13966;48.828;9.064;2022-12-05T01:38:46;30.98;;;14.60;;
26113;SDS011;13966;48.828;9.064;2022-12-05T01:41:21;28.80;;;14.38;;
26113;SDS011;13966;48.828;9.064;2022-12-05T01:43:54;26.85;;;13.65;;
26113;SDS011;13966;48.828;9.064;2022-12-05T01:46:20;27.48;;;13.63;;
26113;SDS011;13966;48.828;9.064;2022-12-05T01:48:46;28.30;;;14.70;;
26113;SDS011;13966;48.828;9.064;2022-12-05T01:51:12;26.02;;;14.63;;
26113;SDS011;13966;48.828;9.064;2022-12-05T01:53:38;25.20;;;13.43;;
26113;SDS011;13966;48.828;9.064;2022-12-05T01:56:04;31.98;;;15.63;;
26113;SDS011;13966;48.828;9.064;2022-12-05T01:58:32;30.77;;;14.63;;
26113;SDS011;13966;48.828;9.064;2022-12-05T02:00:59;30.88;;;14.38;;
26113;SDS011;13966;48.828;9.064;2022-12-05T02:03:25;28.45;;;14.98;;
26113;SDS011;13966;48.828;9.064;2022-12-05T02:05:52;31.15;;;15.07;;
26113;SDS011;13966;48.828;9.064;2022-12-05T02:08:18;26.77;;;14.52;;
26113;SDS011;13966;48.828;9.064;2022-12-05T02:10:51;26.65;;;14.30;;
26113;SDS011;13966;48.828;9.064;2022-12-05T02:13:27;22.85;;;12.25;;
26113;SDS011;13966;48.828;9.064;2022-12-05T02:33:52;26.05;;;13.15;;
26113;SDS011;13966;48.828;9.064;2022-12-05T02:36:25;23.77;;;12.35;;
26113;SDS011;13966;48.828;9.064;2022-12-05T02:39:02;24.50;;;12.20;;
26113;SDS011;13966;48.828;9.064;2022-12-05T02:41:33;22.52;;;12.13;;
26113;SDS011;13966;48.828;9.064;2022-12-05T02:44:09;22.45;;;11.98;;
26113;SDS011;13966;48.828;9.064;2022-12-05T02:46:39;23.00;;;12.13;;
26113;SDS011;13966;48.828;9.064;2022-12-05T02:49:09;21.13;;;12.10;;
26113;SDS011;13966;48.828;9.064;2022-12-05T02:51:40;20.90;;;11.55;;
26113;SDS011;13966;48.828;9.064;2022-12-05T02:54:08;21.88;;;11.48;;
26113;SDS011;13966;48.828;9.064;2022-12-05T02:56:35;24.38;;;12.45;;
26113;SDS011;13966;48.828;9.064;2022-12-05T02:59:02;22.27;;;12.07;;
26113;SDS011;13966;48.828;9.064;2022-12-05T03:01:29;23.42;;;12.35;;
26113;SDS011;13966;48.828;9.064;2022-12-05T03:03:55;24.10;;;11.82;;
26113;SDS011;13966;48.828;9.064;2022-12-05T03:06:29;21.48;;;12.05;;
26113;SDS011;13966;48.828;9.064;2022-12-05T03:08:58;25.98;;;12.82;;
26113;SDS011;13966;48.828;9.064;2022-12-05T03:11:29;25.08;;;13.07;;
26113;SDS011;13966;48.828;9.064;2022-12-05T03:13:57;27.10;;;13.35;;
26113;SDS011;13966;48.828;9.064;2022-12-05T03:16:46;24.30;;;12.73;;
26113;SDS011;13966;48.828;9.064;2022-12-05T03:19:13;25.17;;;12.23;;
26113;SDS011;13966;48.828;9.064;2022-12-05T03:21:51;24.80;;;12.48;;
26113;SDS011;13966;48.828;9.064;2022-12-05T03:24:18;25.38;;;12.65;;
26113;SDS011;13966;48.828;9.064;2022-12-05T03:29:38;25.92;;;12.82;;
26113;SDS011;13966;48.828;9.064;2022-12-05T03:32:10;25.35;;;13.35;;
26113;SDS011;13966;48.828;9.064;2022-12-05T03:37:19;23.08;;;12.57;;
26113;SDS011;13966;48.828;9.064;2022-12-05T03:39:47;27.05;;;13.63;;
26113;SDS011;13966;48.828;9.064;2022-12-05T03:42:16;28.35;;;14.07;;
26113;SDS011;13966;48.828;9.064;2022-12-05T03:47:15;28.60;;;13.70;;
26113;SDS011;13966;48.828;9.064;2022-12-05T03:49:44;26.42;;;12.65;;
26113;SDS011;13966;48.828;9.064;2022-12-05T03:52:17;28.58;;;13.90;;
26113;SDS011;13966;48.828;9.064;2022-12-05T03:54:46;25.92;;;13.82;;
26113;SDS011;13966;48.828;9.064;2022-12-05T03:57:15;27.13;;;14.25;;
26113;SDS011;13966;48.828;9.064;2022-12-05T04:02:12;25.30;;;13.55;;
26113;SDS011;13966;48.828;9.064;2022-12-05T04:04:43;29.30;;;14.15;;
26113;SDS011;13966;48.828;9.064;2022-12-05T04:07:10;29.15;;;14.27;;
26113;SDS011;13966;48.828;9.064;2022-12-05T04:09:48;26.58;;;13.32;;
26113;SDS011;13966;48.828;9.064;2022-12-05T04:12:16;30.40;;;14.27;;
26113;SDS011;13966;48.828;9.064;2022-12-05T04:14:44;29.42;;;13.32;;
26113;SDS011;13966;48.828;9.064;2022-12-05T04:17:16;25.83;;;12.88;;
26113;SDS011;13966;48.828;9.064;2022-12-05T04:22:27;26.20;;;12.80;;
26113;SDS011;13966;48.828;9.064;2022-12-05T04:24:53;26.05;;;13.70;;
26113;SDS011;13966;48.828;9.064;2022-12-05T04:27:41;29.35;;;14.65;;
26113;SDS011;13966;48.828;9.064;2022-12-05T04:30:10;28.52;;;14.30;;
26113;SDS011;13966;48.828;9.064;2022-12-05T04:32:39;29.40;;;13.63;;
26113;SDS011;13966;48.828;9.064;2022-12-05T04:35:10;25.55;;;13.35;;
26113;SDS011;13966;48.828;9.064;2022-12-05T04:37:38;26.02;;;13.15;;
26113;SDS011;13966;48.828;9.064;2022-12-05T04:40:15;28.33;;;14.65;;
26113;SDS011;13966;48.828;9.064;2022-12-05T04:42:43;27.15;;;13.60;;
26113;SDS011;13966;48.828;9.064;2022-12-05T04:45:10;29.08;;;13.77;;
26113;SDS011;13966;48.828;9.064;2022-12-05T04:47:38;27.95;;;13.73;;
26113;SDS011;13966;48.828;9.064;2022-12-05T04:50:06;24.67;;;13.07;;
26113;SDS011;13966;48.828;9.064;2022-12-05T04:52:33;27.23;;;13.60;;
26113;SDS011;13966;48.828;9.064;2022-12-05T04:55:02;29.25;;;13.63;;
26113;SDS011;13966;48.828;9.064;2022-12-05T04:57:30;23.75;;;13.52;;
26113;SDS011;13966;48.828;9.064;2022-12-05T04:59:58;24.85;;;13.05;;
26113;SDS011;13966;48.828;9.064;2022-12-05T05:02:30;26.83;;;13.93;;
26113;SDS011;13966;48.828;9.064;2022-12-05T05:04:57;30.40;;;14.00;;
26113;SDS011;13966;48.828;9.064;2022-12-05T05:07:24;26.77;;;13.40;;
26113;SDS011;13966;48.828;9.064;2022-12-05T05:09:50;25.38;;;13.70;;
26113;SDS011;13966;48.828;9.064;2022-12-05T05:12:16;24.38;;;13.25;;
26113;SDS011;13966;48.828;9.064;2022-12-05T05:14:42;24.40;;;12.93;;
26113;SDS011;13966;48.828;9.064;2022-12-05T05:17:08;27.95;;;13.55;;
26113;SDS011;13966;48.828;9.064;2022-12-05T05:19:34;28.27;;;14.25;;
26113;SDS011;13966;48.828;9.064;2022-12-05T05:22:00;26.15;;;13.43;;
26113;SDS011;13966;48.828;9.064;2022-12-05T05:24:26;28.00;;;13.25;;
26113;SDS011;13966;48.828;9.064;2022-12-05T05:26:52;25.15;;;12.65;;
26113;SDS011;13966;48.828;9.064;2022-12-05T05:29:18;26.00;;;13.00;;
26113;SDS011;13966;48.828;9.064;2022-12-05T05:31:44;29.05;;;14.00;;
26113;SDS011;13966;48.828;9.064;2022-12-05T05:34:11;23.67;;;13.20;;
26113;SDS011;13966;48.828;9.064;2022-12-05T05:36:39;22.75;;;12.57;;
26113;SDS011;13966;48.828;9.064;2022-12-05T05:39:05;25.40;;;13.00;;
26113;SDS011;13966;48.828;9.064;2022-12-05T05:41:36;28.67;;;16.63;;
26113;SDS011;13966;48.828;9.064;2022-12-05T05:44:02;27.77;;;15.68;;
26113;SDS011;13966;48.828;9.064;2022-12-05T05:46:29;30.38;;;15.77;;
26113;SDS011;13966;48.828;9.064;2022-12-05T05:48:55;33.10;;;16.75;;
26113;SDS011;13966;48.828;9.064;2022-12-05T05:51:22;30.17;;;16.35;;
26113;SDS011;13966;48.828;9.064;2022-12-05T05:53:53;33.03;;;15.93;;
26113;SDS011;13966;48.828;9.064;2022-12-05T05:56:19;29.08;;;15.05;;
26113;SDS011;13966;48.828;9.064;2022-12-05T05:58:45;26.75;;;14.57;;
26113;SDS011;13966;48.828;9.064;2022-12-05T06:01:13;26.75;;;14.35;;
26113;SDS011;13966;48.828;9.064;2022-12-05T06:03:39;25.05;;;13.80;;
26113;SDS011;13966;48.828;9.064;2022-12-05T06:06:06;24.52;;;12.90;;
26113;SDS011;13966;48.828;9.064;2022-12-05T06:08:33;23.55;;;13.10;;
26113;SDS011;13966;48.828;9.064;2022-12-05T06:11:03;24.98;;;12.88;;
26113;SDS011;13966;48.828;9.064;2022-12-05T06:13:29;27.60;;;14.70;;
26113;SDS011;13966;48.828;9.064;2022-12-05T06:15:55;32.83;;;15.82;;
26113;SDS011;13966;48.828;9.064;2022-12-05T06:18:21;41.05;;;21.58;;
26113;SDS011;13966;48.828;9.064;2022-12-05T06:20:54;35.22;;;17.92;;
26113;SDS011;13966;48.828;9.064;2022-12-05T06:23:20;28.67;;;13.85;;
26113;SDS011;13966;48.828;9.064;2022-12-05T06:25:47;28.73;;;13.23;;
26113;SDS011;13966;48.828;9.064;2022-12-05T06:28:13;26.48;;;13.30;;
26113;SDS011;13966;48.828;9.064;2022-12-05T06:30:39;23.10;;;12.57;;
26113;SDS011;13966;48.828;9.064;2022-12-05T06:33:05;25.45;;;13.43;;
26113;SDS011;13966;48.828;9.064;2022-12-05T06:35:31;23.45;;;12.57;;
26113;SDS011;13966;48.828;9.064;2022-12-05T06:37:57;25.52;;;13.55;;
26113;SDS011;13966;48.828;9.064;2022-12-05T06:40:23;22.92;;;12.90;;
26113;SDS011;13966;48.828;9.064;2022-12-05T06:42:49;27.02;;;13.48;;
26113;SDS011;13966;48.828;9.064;2022-12-05T06:45:15;24.85;;;13.77;;
26113;SDS011;13966;48.828;9.064;2022-12-05T06:47:41;27.83;;;13.18;;
26113;SDS011;13966;48.828;9.064;2022-12-05T06:50:07;27.90;;;13.10;;
26113;SDS011;13966;48.828;9.064;2022-12-05T06:52:33;22.88;;;13.02;;
26113;SDS011;13966;48.828;9.064;2022-12-05T06:54:59;31.05;;;15.35;;
26113;SDS011;13966;48.828;9.064;2022-12-05T06:57:26;27.38;;;14.55;;
26113;SDS011;13966;48.828;9.064;2022-12-05T06:59:53;25.05;;;13.35;;
26113;SDS011;13966;48.828;9.064;2022-12-05T07:02:38;26.42;;;13.95;;
26113;SDS011;13966;48.828;9.064;2022-12-05T07:05:06;26.15;;;13.52;;
26113;SDS011;13966;48.828;9.064;2022-12-05T07:07:32;30.08;;;13.93;;
26113;SDS011;13966;48.828;9.064;2022-12-05T07:09:58;27.13;;;13.38;;
26113;SDS011;13966;48.828;9.064;2022-12-05T07:12:24;29.30;;;13.80;;
26113;SDS011;13966;48.828;9.064;2022-12-05T07:14:50;26.08;;;15.13;;
26113;SDS011;13966;48.828;9.064;2022-12-05T07:17:16;29.17;;;14.55;;
26113;SDS011;13966;48.828;9.064;2022-12-05T07:19:43;27.23;;;13.35;;
26113;SDS011;13966;48.828;9.064;2022-12-05T07:22:09;24.23;;;13.10;;
26113;SDS011;13966;48.828;9.064;2022-12-05T07:24:35;29.15;;;13.63;;
26113;SDS011;13966;48.828;9.064;2022-12-05T07:27:01;28.63;;;14.75;;
26113;SDS011;13966;48.828;9.064;2022-12-05T07:29:27;28.73;;;13.77;;
26113;SDS011;13966;48.828;9.064;2022-12-05T07:31:53;24.77;;;14.02;;
26113;SDS011;13966;48.828;9.064;2022-12-05T07:34:19;22.58;;;12.13;;
26113;SDS011;13966;48.828;9.064;2022-12-05T07:36:45;20.73;;;11.55;;
26113;SDS011;13966;48.828;9.064;2022-12-05T07:39:11;19.80;;;11.68;;
26113;SDS011;13966;48.828;9.064;2022-12-05T07:41:37;21.48;;;12.13;;
26113;SDS011;13966;48.828;9.064;2022-12-05T07:44:03;17.95;;;10.48;;
26113;SDS011;13966;48.828;9.064;2022-12-05T07:46:29;18.17;;;11.15;;
26113;SDS011;13966;48.828;9.064;2022-12-05T07:48:55;17.17;;;9.73;;
26113;SDS011;13966;48.828;9.064;2022-12-05T07:51:21;15.18;;;9.68;;
26113;SDS011;13966;48.828;9.064;2022-12-05T07:53:47;16.25;;;10.05;;
26113;SDS011;13966;48.828;9.064;2022-12-05T07:56:14;18.17;;;10.57;;
26113;SDS011;13966;48.828;9.064;2022-12-05T07:58:41;17.63;;;10.23;;
26113;SDS011;13966;48.828;9.064;2022-12-05T08:01:08;15.68;;;9.85;;
26113;SDS011;13966;48.828;9.064;2022-12-05T08:03:35;15.65;;;9.57;;
26113;SDS011;13966;48.828;9.064;2022-12-05T08:06:05;14.52;;;9.50;;
26113;SDS011;13966;48.828;9.064;2022-12-05T08:08:31;16.95;;;9.88;;
26113;SDS011;13966;48.828;9.064;2022-12-05T08:11:04;15.88;;;9.75;;
26113;SDS011;13966;48.828;9.064;2022-12-05T08:13:31;18.73;;;10.10;;
26113;SDS011;13966;48.828;9.064;2022-12-05T08:16:04;17.73;;;10.27;;
26113;SDS011;13966;48.828;9.064;2022-12-05T08:18:30;17.05;;;10.05;;
26113;SDS011;13966;48.828;9.064;2022-12-05T08:21:00;14.77;;;8.70;;
26113;SDS011;13966;48.828;9.064;2022-12-05T08:23:27;14.15;;;8.90;;
26113;SDS011;13966;48.828;9.064;2022-12-05T08:25:54;13.88;;;8.63;;
26113;SDS011;13966;48.828;9.064;2022-12-05T08:28:20;14.13;;;9.35;;
26113;SDS011;13966;48.828;9.064;2022-12-05T08:30:46;13.57;;;8.32;;
26113;SDS011;13966;48.828;9.064;2022-12-05T08:33:12;14.48;;;8.27;;
26113;SDS011;13966;48.828;9.064;2022-12-05T08:35:38;13.55;;;8.82;;
26113;SDS011;13966;48.828;9.064;2022-12-05T08:38:04;14.63;;;8.75;;
26113;SDS011;13966;48.828;9.064;2022-12-05T08:40:30;14.35;;;8.70;;
26113;SDS011;13966;48.828;9.064;2022-12-05T08:42:56;14.30;;;9.18;;
26113;SDS011;13966;48.828;9.064;2022-12-05T08:45:22;12.88;;;8.50;;
26113;SDS011;13966;48.828;9.064;2022-12-05T08:47:48;14.90;;;8.77;;
26113;SDS011;13966;48.828;9.064;2022-12-05T08:50:14;14.35;;;8.40;;
26113;SDS011;13966;48.828;9.064;2022-12-05T08:52:40;15.43;;;8.45;;
26113;SDS011;13966;48.828;9.064;2022-12-05T08:55:06;11.52;;;7.72;;
26113;SDS011;13966;48.828;9.064;2022-12-05T08:57:32;12.95;;;7.88;;
26113;SDS011;13966;48.828;9.064;2022-12-05T08:59:58;13.23;;;8.80;;
26113;SDS011;13966;48.828;9.064;2022-12-05T09:02:24;13.57;;;8.45;;
26113;SDS011;13966;48.828;9.064;2022-12-05T09:04:50;13.30;;;7.82;;
26113;SDS011;13966;48.828;9.064;2022-12-05T09:07:17;13.38;;;8.07;;
26113;SDS011;13966;48.828;9.064;2022-12-05T09:09:43;12.48;;;8.65;;
26113;SDS011;13966;48.828;9.064;2022-12-05T09:12:09;14.35;;;9.80;;
26113;SDS011;13966;48.828;9.064;2022-12-05T09:14:34;24.02;;;11.80;;
26113;SDS011;13966;48.828;9.064;2022-12-05T09:17:01;30.55;;;13.77;;
26113;SDS011;13966;48.828;9.064;2022-12-05T09:19:28;23.00;;;10.52;;
26113;SDS011;13966;48.828;9.064;2022-12-05T09:21:54;18.67;;;9.82;;
26113;SDS011;13966;48.828;9.064;2022-12-05T09:24:21;27.98;;;13.45;;
26113;SDS011;13966;48.828;9.064;2022-12-05T09:26:47;38.28;;;16.55;;
26113;SDS011;13966;48.828;9.064;2022-12-05T09:29:13;15.80;;;9.52;;
26113;SDS011;13966;48.828;9.064;2022-12-05T09:31:40;19.85;;;10.82;;
26113;SDS011;13966;48.828;9.064;2022-12-05T09:34:07;18.00;;;10.25;;
26113;SDS011;13966;48.828;9.064;2022-12-05T09:36:33;16.42;;;10.02;;
26113;SDS011;13966;48.828;9.064;2022-12-05T09:39:00;17.00;;;10.65;;
26113;SDS011;13966;48.828;9.064;2022-12-05T09:49:43;17.02;;;10.05;;
26113;SDS011;13966;48.828;9.064;2022-12-05T09:52:12;16.75;;;9.93;;
26113;SDS011;13966;48.828;9.064;2022-12-05T09:54:40;17.58;;;10.73;;
26113;SDS011;13966;48.828;9.064;2022-12-05T09:57:07;19.52;;;10.88;;
26113;SDS011;13966;48.828;9.064;2022-12-05T09:59:34;15.90;;;9.88;;
26113;SDS011;13966;48.828;9.064;2022-12-05T10:02:25;18.50;;;10.70;;
26113;SDS011;13966;48.828;9.064;2022-12-05T10:17:42;20.85;;;11.07;;
26113;SDS011;13966;48.828;9.064;2022-12-05T10:20:02;21.30;;;10.55;;
26113;SDS011;13966;48.828;9.064;2022-12-05T10:22:38;15.95;;;10.32;;
26113;SDS011;13966;48.828;9.064;2022-12-05T10:25:06;18.10;;;10.73;;
26113;SDS011;13966;48.828;9.064;2022-12-05T10:27:37;18.00;;;10.68;;
26113;SDS011;13966;48.828;9.064;2022-12-05T10:30:11;20.40;;;10.98;;
26113;SDS011;13966;48.828;9.064;2022-12-05T10:32:40;17.52;;;10.50;;
26113;SDS011;13966;48.828;9.064;2022-12-05T10:35:13;17.50;;;10.95;;
26113;SDS011;13966;48.828;9.064;2022-12-05T10:37:40;17.80;;;9.80;;
26113;SDS011;13966;48.828;9.064;2022-12-05T10:40:10;17.35;;;10.98;;
26113;SDS011;13966;48.828;9.064;2022-12-05T10:42:36;16.10;;;10.15;;
26113;SDS011;13966;48.828;9.064;2022-12-05T10:45:04;21.38;;;10.80;;
26113;SDS011;13966;48.828;9.064;2022-12-05T10:47:30;16.67;;;10.23;;
26113;SDS011;13966;48.828;9.064;2022-12-05T10:49:57;15.75;;;9.80;;
26113;SDS011;13966;48.828;9.064;2022-12-05T10:52:24;15.80;;;9.63;;
26113;SDS011;13966;48.828;9.064;2022-12-05T10:54:53;14.13;;;9.32;;
26113;SDS011;13966;48.828;9.064;2022-12-05T10:57:25;17.17;;;10.05;;
26113;SDS011;13966;48.828;9.064;2022-12-05T10:59:51;15.68;;;9.05;;
26113;SDS011;13966;48.828;9.064;2022-12-05T11:02:31;16.13;;;10.18;;
26113;SDS011;13966;48.828;9.064;2022-12-05T11:04:58;15.35;;;8.75;;
26113;SDS011;13966;48.828;9.064;2022-12-05T11:12:43;14.13;;;7.35;;
26113;SDS011;13966;48.828;9.064;2022-12-05T11:17:49;13.73;;;8.52;;
26113;SDS011;13966;48.828;9.064;2022-12-05T11:22:45;14.93;;;8.18;;
26113;SDS011;13966;48.828;9.064;2022-12-05T11:25:25;14.25;;;8.57;;
26113;SDS011;13966;48.828;9.064;2022-12-05T11:27:54;11.77;;;8.13;;
26113;SDS011;13966;48.828;9.064;2022-12-05T11:30:20;14.35;;;7.75;;
26113;SDS011;13966;48.828;9.064;2022-12-05T11:32:47;13.00;;;8.07;;
26113;SDS011;13966;48.828;9.064;2022-12-05T11:35:21;11.77;;;7.72;;
26113;SDS011;13966;48.828;9.064;2022-12-05T11:51:08;12.85;;;8.02;;
26113;SDS011;13966;48.828;9.064;2022-12-05T11:56:25;8.88;;;6.78;;
26113;SDS011;13966;48.828;9.064;2022-12-05T11:58:55;9.00;;;6.20;;
26113;SDS011;13966;48.828;9.064;2022-12-05T12:01:31;9.30;;;6.40;;
26113;SDS011;13966;48.828;9.064;2022-12-05T12:06:32;9.63;;;6.43;;
26113;SDS011;13966;48.828;9.064;2022-12-05T12:25:07;8.00;;;5.88;;
26113;SDS011;13966;48.828;9.064;2022-12-05T12:37:33;8.70;;;6.40;;
26113;SDS011;13966;48.828;9.064;2022-12-05T12:40:11;10.02;;;6.90;;
26113;SDS011;13966;48.828;9.064;2022-12-05T12:42:47;10.65;;;6.18;;
26113;SDS011;13966;48.828;9.064;2022-12-05T12:47:58;9.52;;;6.80;;
26113;SDS011;13966;48.828;9.064;2022-12-05T12:50:30;9.40;;;6.10;;
26113;SDS011;13966;48.828;9.064;2022-12-05T12:53:10;9.10;;;6.10;;
26113;SDS011;13966;48.828;9.064;2022-12-05T12:55:49;9.32;;;6.85;;
26113;SDS011;13966;48.828;9.064;2022-12-05T12:58:38;9.88;;;5.95;;
26113;SDS011;13966;48.828;9.064;2022-12-05T13:01:19;9.15;;;6.55;;
26113;SDS011;13966;48.828;9.064;2022-12-05T13:03:53;9.70;;;6.07;;
26113;SDS011;13966;48.828;9.064;2022-12-05T13:06:34;9.07;;;6.10;;
26113;SDS011;13966;48.828;9.064;2022-12-05T13:09:08;10.02;;;6.15;;
26113;SDS011;13966;48.828;9.064;2022-12-05T13:11:37;8.88;;;6.47;;
26113;SDS011;13966;48.828;9.064;2022-12-05T13:14:04;10.82;;;7.22;;
26113;SDS011;13966;48.828;9.064;2022-12-05T13:16:35;11.48;;;7.13;;
26113;SDS011;13966;48.828;9.064;2022-12-05T13:19:04;10.57;;;6.95;;
26113;SDS011;13966;48.828;9.064;2022-12-05T13:21:30;10.10;;;7.10;;
26113;SDS011;13966;48.828;9.064;2022-12-05T13:23:57;9.23;;;7.10;;
26113;SDS011;13966;48.828;9.064;2022-12-05T13:26:30;15.13;;;6.97;;
26113;SDS011;13966;48.828;9.064;2022-12-05T13:28:58;9.20;;;6.68;;
26113;SDS011;13966;48.828;9.064;2022-12-05T13:34:03;11.98;;;7.65;;
26113;SDS011;13966;48.828;9.064;2022-12-05T13:36:31;12.48;;;7.70;;
26113;SDS011;13966;48.828;9.064;2022-12-05T13:39:22;11.10;;;7.65;;
26113;SDS011;13966;48.828;9.064;2022-12-05T13:42:22;10.70;;;7.70;;
26113;SDS011;13966;48.828;9.064;2022-12-05T13:52:22;11.20;;;7.93;;
26113;SDS011;13966;48.828;9.064;2022-12-05T13:54:55;16.05;;;9.20;;
26113;SDS011;13966;48.828;9.064;2022-12-05T14:10:13;12.18;;;9.23;;
26113;SDS011;13966;48.828;9.064;2022-12-05T14:12:47;16.00;;;9.70;;
26113;SDS011;13966;48.828;9.064;2022-12-05T14:15:27;14.55;;;8.82;;
26113;SDS011;13966;48.828;9.064;2022-12-05T14:18:13;14.68;;;9.35;;
26113;SDS011;13966;48.828;9.064;2022-12-05T14:23:26;10.88;;;7.68;;
26113;SDS011;13966;48.828;9.064;2022-12-05T14:26:19;12.77;;;8.60;;
26113;SDS011;13966;48.828;9.064;2022-12-05T14:36:59;14.02;;;10.38;;
26113;SDS011;13966;48.828;9.064;2022-12-05T14:39:29;22.27;;;12.57;;
26113;SDS011;13966;48.828;9.064;2022-12-05T14:41:56;15.55;;;10.25;;
26113;SDS011;13966;48.828;9.064;2022-12-05T14:44:23;15.55;;;10.23;;
26113;SDS011;13966;48.828;9.064;2022-12-05T14:46:55;14.25;;;10.07;;
26113;SDS011;13966;48.828;9.064;2022-12-05T14:49:50;19.85;;;10.88;;
26113;SDS011;13966;48.828;9.064;2022-12-05T14:52:17;16.50;;;11.02;;
26113;SDS011;13966;48.828;9.064;2022-12-05T14:54:43;16.63;;;10.88;;
26113;SDS011;13966;48.828;9.064;2022-12-05T14:57:11;16.88;;;10.88;;
26113;SDS011;13966;48.828;9.064;2022-12-05T14:59:59;21.02;;;10.90;;
26113;SDS011;13966;48.828;9.064;2022-12-05T15:02:28;17.73;;;11.40;;
26113;SDS011;13966;48.828;9.064;2022-12-05T15:04:57;22.65;;;10.20;;
26113;SDS011;13966;48.828;9.064;2022-12-05T15:07:32;17.40;;;10.57;;
26113;SDS011;13966;48.828;9.064;2022-12-05T15:12:47;18.50;;;10.20;;
26113;SDS011;13966;48.828;9.064;2022-12-05T15:15:16;15.43;;;10.93;;
26113;SDS011;13966;48.828;9.064;2022-12-05T15:20:13;17.25;;;11.60;;
26113;SDS011;13966;48.828;9.064;2022-12-05T15:22:39;18.00;;;10.15;;
26113;SDS011;13966;48.828;9.064;2022-12-05T15:25:25;18.10;;;10.88;;
26113;SDS011;13966;48.828;9.064;2022-12-05T15:27:52;15.77;;;10.77;;
26113;SDS011;13966;48.828;9.064;2022-12-05T15:30:19;18.52;;;11.63;;
26113;SDS011;13966;48.828;9.064;2022-12-05T15:32:45;20.98;;;12.25;;
26113;SDS011;13966;48.828;9.064;2022-12-05T15:35:11;18.00;;;11.48;;
26113;SDS011;13966;48.828;9.064;2022-12-05T15:40:20;18.75;;;11.15;;
26113;SDS011;13966;48.828;9.064;2022-12-05T15:50:12;18.75;;;11.48;;
26113;SDS011;13966;48.828;9.064;2022-12-05T15:52:43;18.88;;;11.85;;
26113;SDS011;13966;48.828;9.064;2022-12-05T15:55:12;22.92;;;13.90;;
26113;SDS011;13966;48.828;9.064;2022-12-05T15:57:43;22.55;;;13.82;;
26113;SDS011;13966;48.828;9.064;2022-12-05T16:00:14;27.45;;;15.82;;
26113;SDS011;13966;48.828;9.064;2022-12-05T16:02:43;20.23;;;13.57;;
26113;SDS011;13966;48.828;9.064;2022-12-05T16:05:18;18.67;;;12.95;;
26113;SDS011;13966;48.828;9.064;2022-12-05T16:07:45;20.38;;;12.00;;
26113;SDS011;13966;48.828;9.064;2022-12-05T16:10:12;22.30;;;13.07;;
26113;SDS011;13966;48.828;9.064;2022-12-05T16:12:38;40.30;;;21.65;;
26113;SDS011;13966;48.828;9.064;2022-12-05T16:15:24;38.72;;;23.45;;
26113;SDS011;13966;48.828;9.064;2022-12-05T16:17:56;26.33;;;15.90;;
26113;SDS011;13966;48.828;9.064;2022-12-05T16:20:23;25.10;;;13.20;;
26113;SDS011;13966;48.828;9.064;2022-12-05T16:22:50;20.02;;;13.05;;
26113;SDS011;13966;48.828;9.064;2022-12-05T16:25:22;28.25;;;14.00;;
26113;SDS011;13966;48.828;9.064;2022-12-05T16:27:55;24.58;;;14.13;;
26113;SDS011;13966;48.828;9.064;2022-12-05T16:30:22;23.02;;;14.02;;
26113;SDS011;13966;48.828;9.064;2022-12-05T16:32:48;26.70;;;14.05;;
26113;SDS011;13966;48.828;9.064;2022-12-05T16:35:49;20.10;;;13.07;;
26113;SDS011;13966;48.828;9.064;2022-12-05T16:40:35;20.92;;;13.18;;
26113;SDS011;13966;48.828;9.064;2022-12-05T16:43:02;22.00;;;13.60;;
26113;SDS011;13966;48.828;9.064;2022-12-05T16:45:39;23.77;;;14.52;;
26113;SDS011;13966;48.828;9.064;2022-12-05T16:48:17;21.02;;;13.48;;
26113;SDS011;13966;48.828;9.064;2022-12-05T16:50:44;24.40;;;13.90;;
26113;SDS011;13966;48.828;9.064;2022-12-05T16:53:13;23.88;;;14.18;;
26113;SDS011;13966;48.828;9.064;2022-12-05T16:55:40;23.48;;;13.80;;
26113;SDS011;13966;48.828;9.064;2022-12-05T16:58:08;23.23;;;13.90;;
26113;SDS011;13966;48.828;9.064;2022-12-05T17:00:35;21.95;;;13.60;;
26113;SDS011;13966;48.828;9.064;2022-12-05T17:03:02;22.35;;;13.48;;
26113;SDS011;13966;48.828;9.064;2022-12-05T17:05:28;21.20;;;12.68;;
26113;SDS011;13966;48.828;9.064;2022-12-05T17:07:54;23.33;;;13.50;;
26113;SDS011;13966;48.828;9.064;2022-12-05T17:10:20;24.58;;;13.52;;
26113;SDS011;13966;48.828;9.064;2022-12-05T17:12:46;18.17;;;11.63;;
26113;SDS011;13966;48.828;9.064;2022-12-05T17:15:16;21.25;;;13.35;;
26113;SDS011;13966;48.828;9.064;2022-12-05T17:17:42;22.95;;;14.18;;